sensor_id;sensor_type;location;lat;lon;timestamp;P1;P2;P0
76421;PMS5003;65254;52.354;13.614;2022-12-18T00:00:00;25;22;
76421;PMS5003;65254;52.354;13.614;2022-12-18T00:04:02;23;21;
76421;PMS5003;65254;52.354;13.614;2022-12-18T00:08:02;21;18;
76421;PMS5003;65254;52.354;13.614;2022-12-18T00:12:10;19;17;
76421;PMS5003;65254;52.354;13.614;2022-12-18T00:16:02;18;16;
76421;PMS5003;65254;52.354;13.614;2022-12-18T00:20:00;20;18;
76421;PMS5003;65254;52.354;13.614;2022-12-18T00:24:01;19;17;
76421;PMS5003;65254;52.354;13.614;2022-12-18T00:28:00;19;17;
76421;PMS5003;65254;52.354;13.614;2022-12-18T00:32:00;22;20;
76421;PMS5003;65254;52.354;13.614;2022-12-18T00:36:01;21;19;
76421;PMS5003;65254;52.354;13.614;2022-12-18T00:40:00;21;19;
76421;PMS5003;65254;52.354;13.614;2022-12-18T00:44:01;22;20;
76421;PMS5003;65254;52.354;13.614;2022-12-18T00:48:01;21;19;
76421;PMS5003;65254;52.354;13.614;2022-12-18T00:52:00;22;19;
76421;PMS5003;65254;52.354;13.614;2022-12-18T00:56:00;22;20;
76421;PMS5003;65254;52.354;13.614;2022-12-18T01:00:00;24;21;
76421;PMS5003;65254;52.354;13.614;2022-12-18T01:04:01;24;21;
76421;PMS5003;65254;52.354;13.614;2022-12-18T01:08:00;24;22;
76421;PMS5003;65254;52.354;13.614;2022-12-18T01:12:00;23;20;
76421;PMS5003;65254;52.354;13.614;2022-12-18T01:16:00;23;21;
76421;PMS5003;65254;52.354;13.614;2022-12-18T01:20:00;24;21;
76421;PMS5003;65254;52.354;13.614;2022-12-18T01:24:00;23;20;
76421;PMS5003;65254;52.354;13.614;2022-12-18T01:28:00;22;19;
76421;PMS5003;65254;52.354;13.614;2022-12-18T01:32:00;23;21;
76421;PMS5003;65254;52.354;13.614;2022-12-18T01:36:00;23;20;
76421;PMS5003;65254;52.354;13.614;2022-12-18T01:40:00;22;20;
76421;PMS5003;65254;52.354;13.614;2022-12-18T01:44:00;22;19;
76421;PMS5003;65254;52.354;13.614;2022-12-18T01:48:02;22;20;
76421;PMS5003;65254;52.354;13.614;2022-12-18T01:52:00;22;20;
76421;PMS5003;65254;52.354;13.614;2022-12-18T01:56:00;22;19;
76421;PMS5003;65254;52.354;13.614;2022-12-18T02:00:04;22;20;
76421;PMS5003;65254;52.354;13.614;2022-12-18T02:04:17;21;19;
76421;PMS5003;65254;52.354;13.614;2022-12-18T02:08:06;20;18;
76421;PMS5003;65254;52.354;13.614;2022-12-18T02:12:07;21;19;
76421;PMS5003;65254;52.354;13.614;2022-12-18T02:16:05;20;18;
76421;PMS5003;65254;52.354;13.614;2022-12-18T02:20:10;20;18;
76421;PMS5003;65254;52.354;13.614;2022-12-18T02:24:11;20;18;
76421;PMS5003;65254;52.354;13.614;2022-12-18T02:28:05;21;19;
76421;PMS5003;65254;52.354;13.614;2022-12-18T02:32:03;21;19;
76421;PMS5003;65254;52.354;13.614;2022-12-18T02:36:01;21;18;
76421;PMS5003;65254;52.354;13.614;2022-12-18T02:40:03;21;19;
76421;PMS5003;65254;52.354;13.614;2022-12-18T02:44:06;20;17;
76421;PMS5003;65254;52.354;13.614;2022-12-18T02:48:00;20;18;
76421;PMS5003;65254;52.354;13.614;2022-12-18T02:52:06;19;17;
76421;PMS5003;65254;52.354;13.614;2022-12-18T02:56:06;19;17;
76421;PMS5003;65254;52.354;13.614;2022-12-18T03:00:04;20;18;
76421;PMS5003;65254;52.354;13.614;2022-12-18T03:04:03;20;18;
76421;PMS5003;65254;52.354;13.614;2022-12-18T03:08:05;20;18;
76421;PMS5003;65254;52.354;13.614;2022-12-18T03:12:04;18;16;
76421;PMS5003;65254;52.354;13.614;2022-12-18T03:16:02;19;17;
76421;PMS5003;65254;52.354;13.614;2022-12-18T03:20:04;18;16;
76421;PMS5003;65254;52.354;13.614;2022-12-18T03:24:03;18;16;
76421;PMS5003;65254;52.354;13.614;2022-12-18T03:28:02;18;16;
76421;PMS5003;65254;52.354;13.614;2022-12-18T03:32:05;20;18;
76421;PMS5003;65254;52.354;13.614;2022-12-18T03:36:00;19;17;
76421;PMS5003;65254;52.354;13.614;2022-12-18T03:40:00;18;16;
76421;PMS5003;65254;52.354;13.614;2022-12-18T03:44:04;19;17;
76421;PMS5003;65254;52.354;13.614;2022-12-18T03:48:04;20;18;
76421;PMS5003;65254;52.354;13.614;2022-12-18T03:52:03;19;17;
76421;PMS5003;65254;52.354;13.614;2022-12-18T03:56:01;21;19;
76421;PMS5003;65254;52.354;13.614;2022-12-18T04:00:04;19;17;
76421;PMS5003;65254;52.354;13.614;2022-12-18T04:04:01;20;18;
76421;PMS5003;65254;52.354;13.614;2022-12-18T04:08:01;19;17;
76421;PMS5003;65254;52.354;13.614;2022-12-18T04:12:00;20;18;
76421;PMS5003;65254;52.354;13.614;2022-12-18T04:16:00;20;18;
76421;PMS5003;65254;52.354;13.614;2022-12-18T04:20:00;20;18;
76421;PMS5003;65254;52.354;13.614;2022-12-18T04:24:00;23;20;
76421;PMS5003;65254;52.354;13.614;2022-12-18T04:28:00;22;19;
76421;PMS5003;65254;52.354;13.614;2022-12-18T04:32:01;23;20;
76421;PMS5003;65254;52.354;13.614;2022-12-18T04:36:00;24;21;
76421;PMS5003;65254;52.354;13.614;2022-12-18T04:40:00;25;22;
76421;PMS5003;65254;52.354;13.614;2022-12-18T04:44:01;24;21;
76421;PMS5003;65254;52.354;13.614;2022-12-18T04:48:01;23;21;
76421;PMS5003;65254;52.354;13.614;2022-12-18T04:52:00;25;22;
76421;PMS5003;65254;52.354;13.614;2022-12-18T04:56:03;22;20;
76421;PMS5003;65254;52.354;13.614;2022-12-18T05:00:00;24;22;
76421;PMS5003;65254;52.354;13.614;2022-12-18T05:04:01;25;22;
76421;PMS5003;65254;52.354;13.614;2022-12-18T05:08:00;25;22;
76421;PMS5003;65254;52.354;13.614;2022-12-18T05:12:00;26;23;
76421;PMS5003;65254;52.354;13.614;2022-12-18T05:16:01;22;20;
76421;PMS5003;65254;52.354;13.614;2022-12-18T05:20:00;23;21;
76421;PMS5003;65254;52.354;13.614;2022-12-18T05:24:00;22;20;
76421;PMS5003;65254;52.354;13.614;2022-12-18T05:28:00;24;22;
76421;PMS5003;65254;52.354;13.614;2022-12-18T05:32:00;24;21;
76421;PMS5003;65254;52.354;13.614;2022-12-18T05:36:02;25;22;
76421;PMS5003;65254;52.354;13.614;2022-12-18T05:40:00;25;22;
76421;PMS5003;65254;52.354;13.614;2022-12-18T05:44:00;27;24;
76421;PMS5003;65254;52.354;13.614;2022-12-18T05:48:00;26;23;
76421;PMS5003;65254;52.354;13.614;2022-12-18T05:52:01;25;22;
76421;PMS5003;65254;52.354;13.614;2022-12-18T05:56:01;24;22;
76421;PMS5003;65254;52.354;13.614;2022-12-18T06:00:00;23;21;
76421;PMS5003;65254;52.354;13.614;2022-12-18T06:04:00;24;22;
76421;PMS5003;65254;52.354;13.614;2022-12-18T06:08:00;23;21;
76421;PMS5003;65254;52.354;13.614;2022-12-18T06:12:00;23;20;
76421;PMS5003;65254;52.354;13.614;2022-12-18T06:16:01;24;21;
76421;PMS5003;65254;52.354;13.614;2022-12-18T06:20:00;23;21;
76421;PMS5003;65254;52.354;13.614;2022-12-18T06:24:00;21;19;
76421;PMS5003;65254;52.354;13.614;2022-12-18T06:28:00;24;21;
76421;PMS5003;65254;52.354;13.614;2022-12-18T06:32:00;20;18;
76421;PMS5003;65254;52.354;13.614;2022-12-18T06:36:03;21;19;
76421;PMS5003;65254;52.354;13.614;2022-12-18T06:40:00;20;18;
76421;PMS5003;65254;52.354;13.614;2022-12-18T06:44:00;19;17;
76421;PMS5003;65254;52.354;13.614;2022-12-18T06:48:00;20;18;
76421;PMS5003;65254;52.354;13.614;2022-12-18T06:52:00;21;19;
76421;PMS5003;65254;52.354;13.614;2022-12-18T06:56:08;20;18;
76421;PMS5003;65254;52.354;13.614;2022-12-18T07:00:00;21;19;
76421;PMS5003;65254;52.354;13.614;2022-12-18T07:04:00;21;19;
76421;PMS5003;65254;52.354;13.614;2022-12-18T07:08:00;21;19;
76421;PMS5003;65254;52.354;13.614;2022-12-18T07:12:00;23;20;
76421;PMS5003;65254;52.354;13.614;2022-12-18T07:16:06;22;20;
76421;PMS5003;65254;52.354;13.614;2022-12-18T07:20:00;23;20;
76421;PMS5003;65254;52.354;13.614;2022-12-18T07:24:00;21;19;
76421;PMS5003;65254;52.354;13.614;2022-12-18T07:28:00;22;20;
76421;PMS5003;65254;52.354;13.614;2022-12-18T07:32:00;21;19;
76421;PMS5003;65254;52.354;13.614;2022-12-18T07:36:01;21;18;
76421;PMS5003;65254;52.354;13.614;2022-12-18T07:40:00;22;20;
76421;PMS5003;65254;52.354;13.614;2022-12-18T07:44:00;21;19;
76421;PMS5003;65254;52.354;13.614;2022-12-18T07:48:00;21;19;
76421;PMS5003;65254;52.354;13.614;2022-12-18T07:52:00;21;19;
76421;PMS5003;65254;52.354;13.614;2022-12-18T07:56:11;22;20;
76421;PMS5003;65254;52.354;13.614;2022-12-18T08:00:00;22;20;
76421;PMS5003;65254;52.354;13.614;2022-12-18T08:04:00;21;18;
76421;PMS5003;65254;52.354;13.614;2022-12-18T08:08:00;22;20;
76421;PMS5003;65254;52.354;13.614;2022-12-18T08:12:00;22;20;
76421;PMS5003;65254;52.354;13.614;2022-12-18T08:16:02;21;19;
76421;PMS5003;65254;52.354;13.614;2022-12-18T08:20:01;23;21;
76421;PMS5003;65254;52.354;13.614;2022-12-18T08:24:01;22;20;
76421;PMS5003;65254;52.354;13.614;2022-12-18T08:28:00;22;19;
76421;PMS5003;65254;52.354;13.614;2022-12-18T08:32:00;22;20;
76421;PMS5003;65254;52.354;13.614;2022-12-18T08:36:01;23;20;
76421;PMS5003;65254;52.354;13.614;2022-12-18T08:40:00;22;20;
76421;PMS5003;65254;52.354;13.614;2022-12-18T08:44:00;20;18;
76421;PMS5003;65254;52.354;13.614;2022-12-18T08:48:00;23;20;
76421;PMS5003;65254;52.354;13.614;2022-12-18T08:52:00;24;21;
76421;PMS5003;65254;52.354;13.614;2022-12-18T08:56:00;24;21;
76421;PMS5003;65254;52.354;13.614;2022-12-18T09:00:00;22;20;
76421;PMS5003;65254;52.354;13.614;2022-12-18T09:04:00;23;20;
76421;PMS5003;65254;52.354;13.614;2022-12-18T09:08:00;24;21;
76421;PMS5003;65254;52.354;13.614;2022-12-18T09:12:00;27;24;
76421;PMS5003;65254;52.354;13.614;2022-12-18T09:16:03;31;27;
76421;PMS5003;65254;52.354;13.614;2022-12-18T09:20:00;27;24;
76421;PMS5003;65254;52.354;13.614;2022-12-18T09:24:00;28;25;
76421;PMS5003;65254;52.354;13.614;2022-12-18T09:28:02;25;22;
76421;PMS5003;65254;52.354;13.614;2022-12-18T09:32:00;24;21;
76421;PMS5003;65254;52.354;13.614;2022-12-18T09:36:02;25;22;
76421;PMS5003;65254;52.354;13.614;2022-12-18T09:40:00;26;23;
76421;PMS5003;65254;52.354;13.614;2022-12-18T09:44:03;24;21;
76421;PMS5003;65254;52.354;13.614;2022-12-18T09:48:01;25;22;
76421;PMS5003;65254;52.354;13.614;2022-12-18T09:52:03;23;20;
76421;PMS5003;65254;52.354;13.614;2022-12-18T09:56:01;26;23;
76421;PMS5003;65254;52.354;13.614;2022-12-18T10:00:06;24;21;
76421;PMS5003;65254;52.354;13.614;2022-12-18T10:04:00;23;21;
76421;PMS5003;65254;52.354;13.614;2022-12-18T10:08:05;23;21;
76421;PMS5003;65254;52.354;13.614;2022-12-18T10:12:06;21;19;
76421;PMS5003;65254;52.354;13.614;2022-12-18T10:16:08;20;18;
76421;PMS5003;65254;52.354;13.614;2022-12-18T10:20:02;21;19;
76421;PMS5003;65254;52.354;13.614;2022-12-18T10:24:11;22;20;
76421;PMS5003;65254;52.354;13.614;2022-12-18T10:28:09;21;19;
76421;PMS5003;65254;52.354;13.614;2022-12-18T10:32:00;22;20;
76421;PMS5003;65254;52.354;13.614;2022-12-18T10:36:00;22;20;
76421;PMS5003;65254;52.354;13.614;2022-12-18T10:40:11;21;19;
76421;PMS5003;65254;52.354;13.614;2022-12-18T10:44:12;21;19;
76421;PMS5003;65254;52.354;13.614;2022-12-18T10:48:00;22;20;
76421;PMS5003;65254;52.354;13.614;2022-12-18T10:52:07;22;20;
76421;PMS5003;65254;52.354;13.614;2022-12-18T10:56:02;20;18;
76421;PMS5003;65254;52.354;13.614;2022-12-18T11:04:08;20;18;
76421;PMS5003;65254;52.354;13.614;2022-12-18T11:08:00;20;18;
76421;PMS5003;65254;52.354;13.614;2022-12-18T11:12:02;20;18;
76421;PMS5003;65254;52.354;13.614;2022-12-18T11:16:00;22;20;
76421;PMS5003;65254;52.354;13.614;2022-12-18T11:20:02;18;16;
76421;PMS5003;65254;52.354;13.614;2022-12-18T11:24:00;19;17;
76421;PMS5003;65254;52.354;13.614;2022-12-18T11:28:03;19;17;
76421;PMS5003;65254;52.354;13.614;2022-12-18T11:32:21;23;20;
76421;PMS5003;65254;52.354;13.614;2022-12-18T11:36:02;20;18;
76421;PMS5003;65254;52.354;13.614;2022-12-18T11:40:05;19;17;
76421;PMS5003;65254;52.354;13.614;2022-12-18T11:44:02;22;20;
76421;PMS5003;65254;52.354;13.614;2022-12-18T11:48:03;21;19;
76421;PMS5003;65254;52.354;13.614;2022-12-18T11:52:04;19;17;
76421;PMS5003;65254;52.354;13.614;2022-12-18T11:56:11;19;17;
76421;PMS5003;65254;52.354;13.614;2022-12-18T12:00:04;21;19;
76421;PMS5003;65254;52.354;13.614;2022-12-18T12:04:08;20;18;
76421;PMS5003;65254;52.354;13.614;2022-12-18T12:08:06;23;20;
76421;PMS5003;65254;52.354;13.614;2022-12-18T12:12:11;22;19;
76421;PMS5003;65254;52.354;13.614;2022-12-18T12:16:09;22;19;
76421;PMS5003;65254;52.354;13.614;2022-12-18T12:20:06;21;19;
76421;PMS5003;65254;52.354;13.614;2022-12-18T12:24:12;23;21;
76421;PMS5003;65254;52.354;13.614;2022-12-18T12:28:12;18;16;
76421;PMS5003;65254;52.354;13.614;2022-12-18T12:32:07;21;19;
76421;PMS5003;65254;52.354;13.614;2022-12-18T12:36:08;21;19;
76421;PMS5003;65254;52.354;13.614;2022-12-18T12:40:05;23;20;
76421;PMS5003;65254;52.354;13.614;2022-12-18T12:44:03;22;20;
76421;PMS5003;65254;52.354;13.614;2022-12-18T12:48:01;23;21;
76421;PMS5003;65254;52.354;13.614;2022-12-18T12:52:05;24;21;
76421;PMS5003;65254;52.354;13.614;2022-12-18T12:56:01;24;22;
76421;PMS5003;65254;52.354;13.614;2022-12-18T13:00:04;24;22;
76421;PMS5003;65254;52.354;13.614;2022-12-18T13:04:08;22;20;
76421;PMS5003;65254;52.354;13.614;2022-12-18T13:08:03;23;21;
76421;PMS5003;65254;52.354;13.614;2022-12-18T13:12:02;22;20;
76421;PMS5003;65254;52.354;13.614;2022-12-18T13:16:05;24;21;
76421;PMS5003;65254;52.354;13.614;2022-12-18T13:20:07;23;21;
76421;PMS5003;65254;52.354;13.614;2022-12-18T13:24:14;23;20;
76421;PMS5003;65254;52.354;13.614;2022-12-18T13:28:05;23;21;
76421;PMS5003;65254;52.354;13.614;2022-12-18T13:32:01;21;19;
76421;PMS5003;65254;52.354;13.614;2022-12-18T13:36:02;21;19;
76421;PMS5003;65254;52.354;13.614;2022-12-18T13:40:00;21;19;
76421;PMS5003;65254;52.354;13.614;2022-12-18T13:44:11;21;19;
76421;PMS5003;65254;52.354;13.614;2022-12-18T13:48:00;21;19;
76421;PMS5003;65254;52.354;13.614;2022-12-18T13:52:00;19;17;
76421;PMS5003;65254;52.354;13.614;2022-12-18T13:56:02;21;19;
76421;PMS5003;65254;52.354;13.614;2022-12-18T14:00:17;20;18;
76421;PMS5003;65254;52.354;13.614;2022-12-18T14:04:11;19;17;
76421;PMS5003;65254;52.354;13.614;2022-12-18T14:08:05;17;15;
76421;PMS5003;65254;52.354;13.614;2022-12-18T14:12:00;17;15;
76421;PMS5003;65254;52.354;13.614;2022-12-18T14:16:05;18;16;
76421;PMS5003;65254;52.354;13.614;2022-12-18T14:20:00;20;18;
76421;PMS5003;65254;52.354;13.614;2022-12-18T14:24:06;24;22;
76421;PMS5003;65254;52.354;13.614;2022-12-18T14:28:08;21;19;
76421;PMS5003;65254;52.354;13.614;2022-12-18T14:32:06;19;17;
76421;PMS5003;65254;52.354;13.614;2022-12-18T14:36:02;18;16;
76421;PMS5003;65254;52.354;13.614;2022-12-18T14:40:12;17;15;
76421;PMS5003;65254;52.354;13.614;2022-12-18T14:44:05;18;16;
76421;PMS5003;65254;52.354;13.614;2022-12-18T14:48:00;18;16;
76421;PMS5003;65254;52.354;13.614;2022-12-18T14:52:02;20;18;
76421;PMS5003;65254;52.354;13.614;2022-12-18T14:56:01;21;19;
76421;PMS5003;65254;52.354;13.614;2022-12-18T15:00:04;27;24;
76421;PMS5003;65254;52.354;13.614;2022-12-18T15:04:01;31;28;
76421;PMS5003;65254;52.354;13.614;2022-12-18T15:08:01;22;20;
76421;PMS5003;65254;52.354;13.614;2022-12-18T15:12:01;20;18;
76421;PMS5003;65254;52.354;13.614;2022-12-18T15:16:01;20;18;
76421;PMS5003;65254;52.354;13.614;2022-12-18T15:20:08;19;17;
76421;PMS5003;65254;52.354;13.614;2022-12-18T15:24:00;20;18;
76421;PMS5003;65254;52.354;13.614;2022-12-18T15:28:00;20;18;
76421;PMS5003;65254;52.354;13.614;2022-12-18T15:32:02;20;18;
76421;PMS5003;65254;52.354;13.614;2022-12-18T15:36:02;20;18;
76421;PMS5003;65254;52.354;13.614;2022-12-18T15:40:00;20;18;
76421;PMS5003;65254;52.354;13.614;2022-12-18T15:44:00;20;18;
76421;PMS5003;65254;52.354;13.614;2022-12-18T15:48:08;22;20;
76421;PMS5003;65254;52.354;13.614;2022-12-18T15:52:01;21;19;
76421;PMS5003;65254;52.354;13.614;2022-12-18T15:56:01;19;17;
76421;PMS5003;65254;52.354;13.614;2022-12-18T16:00:00;21;19;
76421;PMS5003;65254;52.354;13.614;2022-12-18T16:04:00;21;19;
76421;PMS5003;65254;52.354;13.614;2022-12-18T16:08:00;20;18;
76421;PMS5003;65254;52.354;13.614;2022-12-18T16:12:00;20;18;
76421;PMS5003;65254;52.354;13.614;2022-12-18T16:16:00;19;17;
76421;PMS5003;65254;52.354;13.614;2022-12-18T16:20:01;19;17;
76421;PMS5003;65254;52.354;13.614;2022-12-18T16:24:00;19;17;
76421;PMS5003;65254;52.354;13.614;2022-12-18T16:28:00;18;16;
76421;PMS5003;65254;52.354;13.614;2022-12-18T16:32:00;19;17;
76421;PMS5003;65254;52.354;13.614;2022-12-18T16:36:00;19;17;
76421;PMS5003;65254;52.354;13.614;2022-12-18T16:40:00;20;18;
76421;PMS5003;65254;52.354;13.614;2022-12-18T16:44:01;20;18;
76421;PMS5003;65254;52.354;13.614;2022-12-18T16:48:00;19;17;
76421;PMS5003;65254;52.354;13.614;2022-12-18T16:52:00;20;18;
76421;PMS5003;65254;52.354;13.614;2022-12-18T16:56:00;20;18;
76421;PMS5003;65254;52.354;13.614;2022-12-18T17:00:06;20;18;
76421;PMS5003;65254;52.354;13.614;2022-12-18T17:04:03;21;19;
76421;PMS5003;65254;52.354;13.614;2022-12-18T17:08:00;20;18;
76421;PMS5003;65254;52.354;13.614;2022-12-18T17:12:05;23;20;
76421;PMS5003;65254;52.354;13.614;2022-12-18T17:16:02;22;20;
76421;PMS5003;65254;52.354;13.614;2022-12-18T17:20:00;21;19;
76421;PMS5003;65254;52.354;13.614;2022-12-18T17:24:01;24;21;
76421;PMS5003;65254;52.354;13.614;2022-12-18T17:28:00;24;22;
76421;PMS5003;65254;52.354;13.614;2022-12-18T17:32:01;25;22;
76421;PMS5003;65254;52.354;13.614;2022-12-18T17:36:00;23;21;
76421;PMS5003;65254;52.354;13.614;2022-12-18T17:40:00;26;23;
76421;PMS5003;65254;52.354;13.614;2022-12-18T17:44:03;26;23;
76421;PMS5003;65254;52.354;13.614;2022-12-18T17:48:00;26;23;
76421;PMS5003;65254;52.354;13.614;2022-12-18T17:52:00;26;23;
76421;PMS5003;65254;52.354;13.614;2022-12-18T17:56:01;28;25;
76421;PMS5003;65254;52.354;13.614;2022-12-18T18:00:01;27;24;
76421;PMS5003;65254;52.354;13.614;2022-12-18T18:04:02;27;24;
76421;PMS5003;65254;52.354;13.614;2022-12-18T18:08:00;29;26;
76421;PMS5003;65254;52.354;13.614;2022-12-18T18:12:01;28;25;
76421;PMS5003;65254;52.354;13.614;2022-12-18T18:16:00;29;25;
76421;PMS5003;65254;52.354;13.614;2022-12-18T18:20:00;29;26;
76421;PMS5003;65254;52.354;13.614;2022-12-18T18:24:01;29;26;
76421;PMS5003;65254;52.354;13.614;2022-12-18T18:28:00;29;26;
76421;PMS5003;65254;52.354;13.614;2022-12-18T18:32:00;29;26;
76421;PMS5003;65254;52.354;13.614;2022-12-18T18:36:00;29;26;
76421;PMS5003;65254;52.354;13.614;2022-12-18T18:40:00;32;28;
76421;PMS5003;65254;52.354;13.614;2022-12-18T18:44:00;30;27;
76421;PMS5003;65254;52.354;13.614;2022-12-18T18:48:00;30;27;
76421;PMS5003;65254;52.354;13.614;2022-12-18T18:52:00;32;28;
76421;PMS5003;65254;52.354;13.614;2022-12-18T18:56:12;31;27;
76421;PMS5003;65254;52.354;13.614;2022-12-18T19:00:00;33;29;
76421;PMS5003;65254;52.354;13.614;2022-12-18T19:04:00;32;28;
76421;PMS5003;65254;52.354;13.614;2022-12-18T19:08:00;31;28;
76421;PMS5003;65254;52.354;13.614;2022-12-18T19:12:00;31;27;
76421;PMS5003;65254;52.354;13.614;2022-12-18T19:16:04;29;26;
76421;PMS5003;65254;52.354;13.614;2022-12-18T19:20:00;30;27;
76421;PMS5003;65254;52.354;13.614;2022-12-18T19:24:01;29;26;
76421;PMS5003;65254;52.354;13.614;2022-12-18T19:28:00;31;27;
76421;PMS5003;65254;52.354;13.614;2022-12-18T19:32:01;29;26;
76421;PMS5003;65254;52.354;13.614;2022-12-18T19:36:00;31;27;
76421;PMS5003;65254;52.354;13.614;2022-12-18T19:40:03;29;25;
76421;PMS5003;65254;52.354;13.614;2022-12-18T19:44:09;32;28;
76421;PMS5003;65254;52.354;13.614;2022-12-18T19:48:05;30;26;
76421;PMS5003;65254;52.354;13.614;2022-12-18T19:52:00;28;25;
76421;PMS5003;65254;52.354;13.614;2022-12-18T19:56:04;29;26;
76421;PMS5003;65254;52.354;13.614;2022-12-18T20:00:00;29;26;
76421;PMS5003;65254;52.354;13.614;2022-12-18T20:04:02;30;26;
76421;PMS5003;65254;52.354;13.614;2022-12-18T20:08:01;31;27;
76421;PMS5003;65254;52.354;13.614;2022-12-18T20:12:00;29;25;
76421;PMS5003;65254;52.354;13.614;2022-12-18T20:16:00;30;27;
76421;PMS5003;65254;52.354;13.614;2022-12-18T20:20:00;29;26;
76421;PMS5003;65254;52.354;13.614;2022-12-18T20:24:00;30;27;
76421;PMS5003;65254;52.354;13.614;2022-12-18T20:28:00;29;25;
76421;PMS5003;65254;52.354;13.614;2022-12-18T20:32:00;30;27;
76421;PMS5003;65254;52.354;13.614;2022-12-18T20:36:02;29;26;
76421;PMS5003;65254;52.354;13.614;2022-12-18T20:40:01;28;25;
76421;PMS5003;65254;52.354;13.614;2022-12-18T20:44:00;29;26;
76421;PMS5003;65254;52.354;13.614;2022-12-18T20:48:00;30;27;
76421;PMS5003;65254;52.354;13.614;2022-12-18T20:52:00;28;25;
76421;PMS5003;65254;52.354;13.614;2022-12-18T20:56:04;31;27;
76421;PMS5003;65254;52.354;13.614;2022-12-18T21:00:00;29;26;
76421;PMS5003;65254;52.354;13.614;2022-12-18T21:04:00;29;26;
76421;PMS5003;65254;52.354;13.614;2022-12-18T21:08:00;29;26;
76421;PMS5003;65254;52.354;13.614;2022-12-18T21:12:00;29;26;
76421;PMS5003;65254;52.354;13.614;2022-12-18T21:16:00;31;28;
76421;PMS5003;65254;52.354;13.614;2022-12-18T21:20:01;29;25;
76421;PMS5003;65254;52.354;13.614;2022-12-18T21:24:00;29;26;
76421;PMS5003;65254;52.354;13.614;2022-12-18T21:28:01;33;29;
76421;PMS5003;65254;52.354;13.614;2022-12-18T21:32:01;34;30;
76421;PMS5003;65254;52.354;13.614;2022-12-18T21:36:02;30;27;
76421;PMS5003;65254;52.354;13.614;2022-12-18T21:40:00;27;24;
76421;PMS5003;65254;52.354;13.614;2022-12-18T21:44:00;27;24;
76421;PMS5003;65254;52.354;13.614;2022-12-18T21:48:00;28;25;
76421;PMS5003;65254;52.354;13.614;2022-12-18T21:52:00;26;23;
76421;PMS5003;65254;52.354;13.614;2022-12-18T21:56:00;26;23;
76421;PMS5003;65254;52.354;13.614;2022-12-18T22:00:00;25;22;
76421;PMS5003;65254;52.354;13.614;2022-12-18T22:04:00;25;22;
76421;PMS5003;65254;52.354;13.614;2022-12-18T22:08:00;25;22;
76421;PMS5003;65254;52.354;13.614;2022-12-18T22:12:01;26;23;
76421;PMS5003;65254;52.354;13.614;2022-12-18T22:16:00;28;25;
76421;PMS5003;65254;52.354;13.614;2022-12-18T22:20:00;26;23;
76421;PMS5003;65254;52.354;13.614;2022-12-18T22:24:02;26;23;
76421;PMS5003;65254;52.354;13.614;2022-12-18T22:28:00;25;22;
76421;PMS5003;65254;52.354;13.614;2022-12-18T22:32:00;26;23;
76421;PMS5003;65254;52.354;13.614;2022-12-18T22:36:03;26;23;
76421;PMS5003;65254;52.354;13.614;2022-12-18T22:40:05;25;22;
76421;PMS5003;65254;52.354;13.614;2022-12-18T22:44:00;25;22;
76421;PMS5003;65254;52.354;13.614;2022-12-18T22:48:00;25;22;
76421;PMS5003;65254;52.354;13.614;2022-12-18T22:52:00;24;21;
76421;PMS5003;65254;52.354;13.614;2022-12-18T22:56:01;24;21;
76421;PMS5003;65254;52.354;13.614;2022-12-18T23:00:00;23;21;
76421;PMS5003;65254;52.354;13.614;2022-12-18T23:04:00;27;24;
76421;PMS5003;65254;52.354;13.614;2022-12-18T23:08:00;24;22;
76421;PMS5003;65254;52.354;13.614;2022-12-18T23:12:00;26;23;
76421;PMS5003;65254;52.354;13.614;2022-12-18T23:16:03;25;22;
76421;PMS5003;65254;52.354;13.614;2022-12-18T23:20:00;27;24;
76421;PMS5003;65254;52.354;13.614;2022-12-18T23:24:00;25;22;
76421;PMS5003;65254;52.354;13.614;2022-12-18T23:28:00;23;21;
76421;PMS5003;65254;52.354;13.614;2022-12-18T23:32:00;24;21;
76421;PMS5003;65254;52.354;13.614;2022-12-18T23:36:01;25;22;
76421;PMS5003;65254;52.354;13.614;2022-12-18T23:40:00;26;23;
76421;PMS5003;65254;52.354;13.614;2022-12-18T23:44:00;23;21;
76421;PMS5003;65254;52.354;13.614;2022-12-18T23:48:00;24;21;
76421;PMS5003;65254;52.354;13.614;2022-12-18T23:52:00;24;22;
76421;PMS5003;65254;52.354;13.614;2022-12-18T23:56:05;23;20;
